Terminal Aerodrome Forecast
Issued by NWS Twin Cities, MN

Home | Current Version | Previous Version | Graphics & Text | Print | Product List | Glossary On
Versions: 1 2 3 4 5 6 7 8 9 10 11 12 13 14 15 16 17 18 19 20
000
FTUS43 KMPX 220520
TAFSTC
TAF
KSTC 220520Z 2206/2306 VRB03KT 1/4SM FG VV002
     FM221500 33004KT 2SM BR OVC003
     FM221800 30005KT 5SM BR OVC008
     FM230100 29006KT 4SM BR OVC005=

USA.gov is the U.S. government's official web portal to all federal, state and local government web resources and services.